• Join FlightAware (Why Join?)
  • Login
  • US Flag 
07:23AM EST


 

Airport Tracker/Info


-or-


 

Live Flight TrackerFlight Track Log ✈ SWA3317 ✈ 21-Sep-2013 ✈ KLAX - KSJC

Flight Track Log - Related Links

Times and Time Zones

All times are in EDT time to prevent confusion due to time zone crossing. See the SWA3317 flight status page for this flight to view local times or setup timezone preferences in your user account.

Time Position Orientation Groundspeed Altitude Reporting Facility
EDT Latitude Longitude Course Direction KTS MPH feet Rate Location/Type
10:55PM 33.9356 -118.5497 263° West 233 268 5,700  Level Los Angeles Center
10:56PM 33.9264 -118.6444 263° West 264 304 10,500 3,540 Climbing Los Angeles Center
10:57PM 33.9228 -118.7336 267° West 267 307 13,000 1,500 Climbing Los Angeles Center
10:58PM 33.9186 -118.8164 267° West 286 329 13,600 2,280 Climbing Los Angeles Center
10:59PM 33.9667 -118.9375 296° West 347 399 17,700 3,480 Climbing Los Angeles Center
11:00PM 34.0264 -119.0283 308° West 347 399 20,700 2,400 Climbing Los Angeles Center
11:01PM 34.0936 -119.1306 308° West 388 447 22,700 2,100 Climbing Los Angeles Center
11:02PM 34.1622 -119.2372 308° West 401 461 25,100 2,220 Climbing Los Angeles Center
11:03PM 34.2331 -119.3475 308° West 413 475 27,300 2,160 Climbing Los Angeles Center
11:04PM 34.3144 -119.4497 314° West 424 488 29,600 2,400 Climbing Los Angeles Center
11:05PM 34.4117 -119.5369 324° Northwest 432 497 32,200 2,100 Climbing Los Angeles Center
11:06PM 34.5028 -119.6231 322° Northwest 420 483 33,900 1,620 Climbing Los Angeles Center
11:07PM 34.5964 -119.7094 323° Northwest 422 486 35,600 1,800 Climbing Los Angeles Center
11:08PM 34.6919 -119.7939 324° Northwest 419 482 37,600 1,140 Climbing Los Angeles Center
11:09PM 34.7808 -119.8767 323° Northwest 406 467 38,000 180 Climbing Los Angeles Center
11:10PM 34.8689 -119.9589 323° Northwest 402 463 38,000  Level Los Angeles Center
11:11PM 34.9750 -120.0567 323° Northwest 400 460 38,000  Level Los Angeles Center
11:12PM 35.0597 -120.1347 323° Northwest 400 460 38,000  Level Los Angeles Center
11:13PM 35.1497 -120.2186 323° Northwest 410 472 38,000  Level Los Angeles Center
11:14PM 35.2389 -120.3025 322° Northwest 411 473 38,000  Level Los Angeles Center
11:16PM 35.3303 -120.3886 322° Northwest 416 479 38,000  Level Los Angeles Center
11:17PM 35.4200 -120.4747 322° Northwest 415 478 38,000  Level Los Angeles Center
11:18PM 35.5094 -120.5597 322° Northwest 410 472 38,000  Level Los Angeles Center
11:19PM 35.5997 -120.6461 322° Northwest 413 475 38,000  Level Los Angeles Center
11:19PM 35.6867 -120.7278 323° Northwest 411 473 38,000  Level Oakland Center
11:20PM 35.7767 -120.8142 322° Northwest 410 472 38,000 -1,020 Level Oakland Center
11:21PM 35.8658 -120.8986 323° Northwest 406 467 36,000 -2,460 Descending Oakland Center
11:22PM 35.9556 -120.9844 322° Northwest 407 468 33,100 -2,880 Descending Oakland Center
11:23PM 36.0478 -121.0689 323° Northwest 411 473 30,200 -2,460 Descending Oakland Center
11:24PM 36.1408 -121.1478 326° Northwest 408 470 28,100 -2,280 Descending Oakland Center
11:25PM 36.2281 -121.2211 326° Northwest 386 444 25,600 -2,340 Descending Oakland Center
11:26PM 36.3133 -121.2961 325° Northwest 377 434 23,500 -2,040 Descending Oakland Center
11:27PM 36.3939 -121.3669 325° Northwest 361 415 21,600 -1,920 Descending Oakland Center
11:28PM 36.4683 -121.4328 325° Northwest 332 382 19,600 -2,340 Descending Oakland Center
11:29PM 36.5442 -121.4944 327° Northwest 326 375 17,000 -2,340 Descending Oakland Center
11:30PM 36.6367 -121.5228 346° North 331 381 15,000 -1,680 Descending Oakland Center
11:32PM 36.7158 -121.5508 344° North 302 348 13,700 -1,980 Descending Oakland Center
11:33PM 36.7953 -121.5814 343° North 297 342 11,100 -1,860 Descending Oakland Center
11:34PM 36.8822 -121.6122 344° North 307 353 10,000 -1,200 Descending Oakland Center
11:35PM 36.9525 -121.6386 343° North 270 311 8,700 -1,320 Descending Oakland Center
11:36PM 37.0217 -121.6633 344° North 261 300 7,400 -1,440 Descending Oakland Center
11:37PM 37.1036 -121.6922 344° North 256 295 5,900 -1,380 Descending Oakland Center
11:37PM 37.1500 -121.7167 337° Northwest 244 281 5,100 -1,200 Descending Northern Cal TRACON
11:38PM 37.2000 -121.7500 332° Northwest 226 260 3,900 -1,200 Descending Northern Cal TRACON
11:39PM 37.2500 -121.8000 321° Northwest 208 239 2,700 -1,020 Descending Northern Cal TRACON
11:40PM 37.2833 -121.8500 310° West 183 211 1,900 -840 Descending Northern Cal TRACON
11:41PM 37.3167 -121.8833 322° Northwest 139 160 1,100 -780 Descending Northern Cal TRACON
11:42PM 37.3500 -121.9167 322° Northwest 130 150 400 -720 Descending Northern Cal TRACON
11:45PM 37.3627 -121.9291 North  Level Estimated